Time;durP1;ratioP1;P1;durP2;ratioP2;P2;SDS_P1;SDS_P2;PMS_P1;PMS_P2;Temp;Humidity;BMP_temperature;BMP_pressure;BME280_temperature;BME280_humidity;BME280_pressure;Samples;Min_cycle;Max_cycle;Signal;HPM_P1;HPM_P2
2023/05/02 00:00:38;;;;;;;35.10;23.83;;;11.40;99.90;;;;;;5095337;28;20249;-47
2023/05/02 00:03:05;;;;;;;31.92;23.83;;;11.40;99.90;;;;;;5095066;28;20165;-48
2023/05/02 00:05:30;;;;;;;36.63;24.08;;;11.30;99.90;;;;;;5094538;28;20712;-48
2023/05/02 00:07:56;;;;;;;32.97;23.83;;;11.30;99.90;;;;;;5094393;28;20197;-48
2023/05/02 00:10:22;;;;;;;31.05;23.15;;;11.40;99.90;;;;;;5094512;28;20245;-48
2023/05/02 00:12:47;;;;;;;37.80;24.88;;;11.30;99.90;;;;;;5094623;28;20173;-47
2023/05/02 00:15:13;;;;;;;30.48;22.80;;;11.30;99.90;;;;;;5094448;28;20212;-48
2023/05/02 00:17:42;;;;;;;33.30;23.65;;;11.30;99.90;;;;;;5094979;28;20605;-48
2023/05/02 00:20:11;;;;;;;34.75;23.85;;;11.20;99.90;;;;;;5094996;28;20169;-48
2023/05/02 00:22:37;;;;;;;38.33;24.48;;;11.20;99.90;;;;;;5094987;28;20165;-48
2023/05/02 00:25:03;;;;;;;36.35;23.92;;;11.10;99.90;;;;;;5094375;28;20165;-47
2023/05/02 00:27:30;;;;;;;31.90;22.77;;;11.10;99.90;;;;;;5094341;28;20532;-47
2023/05/02 00:29:57;;;;;;;37.22;23.65;;;11.00;99.90;;;;;;5094571;28;20180;-47
2023/05/02 00:32:22;;;;;;;38.70;24.92;;;11.00;99.90;;;;;;5094531;28;20197;-48
2023/05/02 00:34:48;;;;;;;39.33;24.77;;;11.00;99.90;;;;;;5094260;28;20236;-47
2023/05/02 00:37:13;;;;;;;37.05;24.38;;;11.10;99.90;;;;;;5094144;28;20256;-48
2023/05/02 00:39:39;;;;;;;38.78;25.27;;;11.10;99.90;;;;;;5094587;28;20264;-47
2023/05/02 00:42:05;;;;;;;42.40;26.42;;;11.10;99.90;;;;;;5094161;28;20173;-47
2023/05/02 00:44:31;;;;;;;47.22;27.60;;;11.10;99.90;;;;;;5093905;28;20646;-47
2023/05/02 00:46:57;;;;;;;49.10;29.45;;;11.10;99.90;;;;;;5093723;28;20277;-47
2023/05/02 00:49:23;;;;;;;43.75;26.98;;;11.10;99.90;;;;;;5093805;28;20204;-48
2023/05/02 00:51:49;;;;;;;45.00;27.38;;;11.10;99.90;;;;;;5093970;28;20184;-47
2023/05/02 00:54:15;;;;;;;42.92;26.90;;;11.10;99.90;;;;;;5093696;28;20654;-47
2023/05/02 00:56:41;;;;;;;42.53;27.95;;;11.00;99.90;;;;;;5094303;28;20215;-47
2023/05/02 00:59:09;;;;;;;43.35;28.75;;;11.00;99.90;;;;;;5094024;28;20536;-47
2023/05/02 01:01:52;;;;;;;43.22;26.33;;;10.90;99.90;;;;;;5093948;28;20173;-48
2023/05/02 01:04:34;;;;;;;48.97;28.95;;;10.90;99.90;;;;;;5093390;28;20245;-48
2023/05/02 01:07:28;;;;;;;51.05;29.73;;;11.00;99.90;;;;;;5093496;28;20622;-47
2023/05/02 01:10:18;;;;;;;47.25;29.25;;;10.90;99.90;;;;;;5093608;28;20638;-48
2023/05/02 01:13:06;;;;;;;51.28;29.77;;;11.00;99.90;;;;;;5093538;28;20166;-48
2023/05/02 01:15:37;;;;;;;51.65;30.73;;;11.00;99.90;;;;;;5093288;28;20207;-48
2023/05/02 01:18:03;;;;;;;51.97;29.63;;;11.00;99.90;;;;;;5093422;28;20689;-48
2023/05/02 01:20:31;;;;;;;49.65;29.10;;;11.00;99.90;;;;;;5093263;28;20172;-48
2023/05/02 01:23:01;;;;;;;49.13;28.95;;;11.00;99.90;;;;;;5091979;28;20575;-48
2023/05/02 01:26:19;;;;;;;45.35;28.42;;;10.90;99.90;;;;;;5093217;28;20676;-47
2023/05/02 01:29:02;;;;;;;53.65;28.60;;;10.90;99.90;;;;;;5039537;28;20187;-48
2023/05/02 01:31:34;;;;;;;48.33;27.75;;;10.90;99.90;;;;;;5093394;28;20169;-47
2023/05/02 01:34:01;;;;;;;46.78;29.88;;;10.90;99.90;;;;;;5092914;28;20193;-47
2023/05/02 01:36:30;;;;;;;46.45;28.95;;;10.90;99.90;;;;;;5092959;28;20173;-49
2023/05/02 01:38:57;;;;;;;49.95;30.52;;;10.90;99.90;;;;;;5093247;28;20165;-47
2023/05/02 01:41:26;;;;;;;52.45;30.60;;;10.80;99.90;;;;;;5093163;28;20178;-47
2023/05/02 01:43:58;;;;;;;53.97;31.20;;;10.90;99.90;;;;;;5092538;28;20498;-55
2023/05/02 01:46:31;;;;;;;49.72;31.60;;;10.80;99.90;;;;;;5092700;28;20252;-48
2023/05/02 01:48:58;;;;;;;47.80;29.13;;;10.90;99.90;;;;;;5092954;28;20222;-48
2023/05/02 01:51:30;;;;;;;53.95;32.28;;;10.80;99.90;;;;;;5092673;28;20575;-48
2023/05/02 01:54:02;;;;;;;52.63;30.38;;;10.90;99.90;;;;;;5092755;28;20204;-47
2023/05/02 01:56:31;;;;;;;48.72;27.73;;;10.90;99.90;;;;;;5092841;28;20177;-50
2023/05/02 01:58:59;;;;;;;57.03;30.80;;;10.90;99.90;;;;;;5092153;28;20165;-48
2023/05/02 02:01:26;;;;;;;51.88;30.10;;;10.90;99.90;;;;;;5092686;28;20202;-48
2023/05/02 02:03:55;;;;;;;55.00;31.25;;;11.00;99.90;;;;;;5092551;28;20173;-48
2023/05/02 02:06:21;;;;;;;52.78;31.08;;;10.90;99.90;;;;;;5092451;28;20218;-48
2023/05/02 02:08:46;;;;;;;54.47;29.90;;;11.00;99.90;;;;;;5092416;28;20241;-48
2023/05/02 02:11:16;;;;;;;54.13;30.55;;;11.00;99.90;;;;;;5092329;28;20176;-48
2023/05/02 02:13:51;;;;;;;50.88;28.35;;;10.90;99.90;;;;;;5092329;28;20166;-48
2023/05/02 02:16:24;;;;;;;50.08;29.73;;;10.90;99.90;;;;;;5092220;28;20181;-48
2023/05/02 02:18:53;;;;;;;49.40;28.42;;;10.90;99.90;;;;;;5092495;28;20165;-48
2023/05/02 02:21:20;;;;;;;49.47;28.63;;;10.90;99.90;;;;;;5092144;28;20161;-48
2023/05/02 02:23:49;;;;;;;49.70;27.27;;;10.90;99.90;;;;;;5092141;28;20153;-48
2023/05/02 02:26:17;;;;;;;47.72;27.90;;;10.90;99.90;;;;;;5092122;28;20171;-48
2023/05/02 02:28:43;;;;;;;44.90;27.17;;;11.00;99.90;;;;;;5092092;28;20655;-48
2023/05/02 02:31:09;;;;;;;47.90;27.00;;;11.00;99.90;;;;;;5092389;28;20170;-47
2023/05/02 02:33:35;;;;;;;44.08;25.50;;;11.00;99.90;;;;;;5092253;28;20248;-48
2023/05/02 02:36:09;;;;;;;46.17;25.35;;;11.00;99.90;;;;;;5091910;28;20744;-47
2023/05/02 02:38:44;;;;;;;41.47;25.45;;;11.00;99.90;;;;;;5091913;28;20161;-47
2023/05/02 02:41:26;;;;;;;48.53;26.08;;;11.10;99.90;;;;;;5092216;28;20164;-48
2023/05/02 02:43:57;;;;;;;47.97;25.92;;;11.10;99.90;;;;;;5091880;28;20157;-48
2023/05/02 02:46:41;;;;;;;48.45;25.98;;;11.10;99.90;;;;;;5091722;28;20165;-47
2023/05/02 02:49:25;;;;;;;42.10;26.10;;;11.10;99.90;;;;;;5092209;28;20161;-48
2023/05/02 02:52:09;;;;;;;46.20;26.05;;;11.10;99.90;;;;;;5091990;28;20171;-47
2023/05/02 02:54:45;;;;;;;44.25;25.67;;;11.10;99.90;;;;;;5091807;28;20189;-47
2023/05/02 02:57:16;;;;;;;43.67;27.17;;;11.10;99.90;;;;;;5092013;28;20626;-47
2023/05/02 02:59:50;;;;;;;43.95;24.98;;;11.20;99.90;;;;;;5091816;28;20249;-47
2023/05/02 03:02:18;;;;;;;44.05;25.30;;;11.10;99.90;;;;;;5091860;28;20211;-47
2023/05/02 03:04:45;;;;;;;47.30;25.92;;;11.20;99.90;;;;;;5091448;28;20217;-47
2023/05/02 03:07:12;;;;;;;47.00;27.17;;;11.20;99.90;;;;;;5091598;28;20217;-48
2023/05/02 03:09:45;;;;;;;45.05;26.73;;;11.20;99.90;;;;;;5092191;28;20173;-48
2023/05/02 03:12:11;;;;;;;44.90;26.90;;;11.10;99.90;;;;;;5095456;28;20180;-49
2023/05/02 03:14:38;;;;;;;45.95;25.10;;;11.10;99.90;;;;;;5096027;28;20193;-47
2023/05/02 03:17:03;;;;;;;43.78;25.50;;;11.10;99.90;;;;;;5095578;28;20225;-47
2023/05/02 03:19:29;;;;;;;43.70;25.17;;;11.10;99.90;;;;;;5095633;28;20157;-47
2023/05/02 03:21:55;;;;;;;45.75;27.15;;;11.10;99.90;;;;;;5095562;28;20641;-47
2023/05/02 03:24:21;;;;;;;46.85;26.17;;;11.10;99.90;;;;;;5095496;28;20636;-46
2023/05/02 03:26:47;;;;;;;45.10;25.25;;;11.10;99.90;;;;;;5095574;28;20169;-46
2023/05/02 03:29:16;;;;;;;40.20;24.35;;;11.10;99.90;;;;;;5095460;28;20502;-47
2023/05/02 03:31:41;;;;;;;41.08;24.42;;;11.10;99.90;;;;;;5095675;28;20570;-47
2023/05/02 03:34:07;;;;;;;44.47;25.30;;;11.10;99.90;;;;;;5095704;28;20165;-47
2023/05/02 03:36:33;;;;;;;40.85;23.80;;;11.10;99.90;;;;;;5095327;28;20273;-47
2023/05/02 03:38:58;;;;;;;41.72;24.63;;;11.00;99.90;;;;;;5093998;28;20709;-47
2023/05/02 03:41:24;;;;;;;40.92;23.35;;;11.10;99.90;;;;;;5095209;28;20252;-47
2023/05/02 03:43:50;;;;;;;41.78;25.50;;;11.10;99.90;;;;;;5095413;28;20679;-47
2023/05/02 03:46:16;;;;;;;43.05;24.48;;;11.20;99.90;;;;;;5095209;28;20173;-47
2023/05/02 03:48:42;;;;;;;46.78;26.08;;;11.10;99.90;;;;;;5095298;28;20177;-47
2023/05/02 03:51:08;;;;;;;45.38;24.02;;;11.20;99.90;;;;;;5095387;28;20630;-47
2023/05/02 03:53:34;;;;;;;39.90;23.67;;;11.20;99.90;;;;;;5095156;28;20169;-48
2023/05/02 03:56:00;;;;;;;44.33;24.17;;;11.10;99.90;;;;;;5094947;28;21047;-47
2023/05/02 03:58:26;;;;;;;41.67;23.88;;;11.10;99.90;;;;;;5095112;28;20188;-47
2023/05/02 04:00:52;;;;;;;42.90;25.23;;;11.10;99.90;;;;;;5095125;28;20173;-47
2023/05/02 04:03:18;;;;;;;39.17;23.40;;;11.10;99.90;;;;;;5095053;28;20519;-47
2023/05/02 04:05:44;;;;;;;43.65;23.40;;;11.10;99.90;;;;;;5094548;28;20229;-47
2023/05/02 04:08:10;;;;;;;43.78;24.58;;;11.20;99.90;;;;;;5095024;28;20166;-47
2023/05/02 04:10:35;;;;;;;39.03;23.17;;;11.20;99.90;;;;;;5095075;28;20218;-47
2023/05/02 04:13:02;;;;;;;43.67;25.08;;;11.10;99.90;;;;;;5094728;28;20529;-47
2023/05/02 04:15:28;;;;;;;41.10;24.48;;;11.20;99.90;;;;;;5094490;28;20624;-47
2023/05/02 04:17:54;;;;;;;37.33;22.42;;;11.20;99.90;;;;;;5094503;28;20189;-47
2023/05/02 04:20:19;;;;;;;39.35;22.63;;;11.20;99.90;;;;;;5094402;28;20208;-47
2023/05/02 04:22:46;;;;;;;40.00;22.67;;;11.20;99.90;;;;;;5093725;28;20165;-48
2023/05/02 04:25:12;;;;;;;39.42;21.67;;;11.10;99.90;;;;;;5094549;28;20176;-47
2023/05/02 04:27:38;;;;;;;36.00;21.50;;;11.10;99.90;;;;;;5094966;28;20165;-47
2023/05/02 04:30:04;;;;;;;38.35;21.38;;;11.10;99.90;;;;;;5094276;28;20675;-48
2023/05/02 04:32:30;;;;;;;37.13;20.88;;;11.10;99.90;;;;;;5094177;28;20176;-47
2023/05/02 04:34:56;;;;;;;31.60;20.80;;;11.10;99.90;;;;;;5094191;28;20205;-48
2023/05/02 04:37:21;;;;;;;33.88;19.35;;;11.20;99.90;;;;;;5094267;28;20164;-48
2023/05/02 04:39:47;;;;;;;34.70;21.25;;;11.20;99.90;;;;;;5094424;28;20169;-47
2023/05/02 04:42:12;;;;;;;33.42;20.38;;;11.20;99.90;;;;;;5094391;28;20169;-48
2023/05/02 04:44:38;;;;;;;33.38;19.42;;;11.30;99.90;;;;;;5094450;28;20640;-47
2023/05/02 04:47:03;;;;;;;33.10;19.52;;;11.30;99.90;;;;;;5093989;28;20682;-47
2023/05/02 04:49:30;;;;;;;35.83;18.83;;;11.30;99.90;;;;;;5093989;28;20650;-48
2023/05/02 04:51:56;;;;;;;33.30;18.25;;;11.20;99.90;;;;;;5093852;28;20210;-47
2023/05/02 04:54:22;;;;;;;40.58;19.42;;;11.30;99.90;;;;;;5093765;28;20205;-47
2023/05/02 04:56:48;;;;;;;29.50;17.77;;;11.30;99.90;;;;;;5093547;28;20258;-47
2023/05/02 04:59:13;;;;;;;32.05;18.48;;;11.30;99.90;;;;;;5093946;28;20180;-47
2023/05/02 05:01:39;;;;;;;32.22;19.25;;;11.30;99.90;;;;;;5094211;28;20579;-47
2023/05/02 05:04:04;;;;;;;30.77;18.17;;;11.30;99.90;;;;;;5093393;28;20275;-47
2023/05/02 05:06:30;;;;;;;29.90;16.90;;;11.30;99.90;;;;;;5093545;28;20531;-48
2023/05/02 05:08:56;;;;;;;34.08;18.15;;;11.30;99.90;;;;;;5093600;28;20220;-47
2023/05/02 05:11:22;;;;;;;27.65;16.65;;;;;;;;;;5093719;28;20590;-47
2023/05/02 05:13:49;;;;;;;27.35;15.25;;;;;;;;;;5092140;28;20169;-47
2023/05/02 05:16:14;;;;;;;24.52;15.73;;;11.20;99.90;;;;;;5093241;28;20738;-47
2023/05/02 05:18:40;;;;;;;23.20;15.48;;;;;;;;;;5093125;28;20173;-47
2023/05/02 05:21:07;;;;;;;22.02;14.23;;;11.30;99.90;;;;;;5093764;28;20210;-48
2023/05/02 05:23:33;;;;;;;25.30;15.55;;;11.20;99.90;;;;;;5093111;28;20161;-46
2023/05/02 05:26:15;;;;;;;25.70;14.75;;;11.20;99.90;;;;;;5093390;28;20541;-46
2023/05/02 05:28:41;;;;;;;26.45;15.15;;;11.20;99.90;;;;;;5093167;28;20570;-46
2023/05/02 05:31:11;;;;;;;29.90;17.00;;;11.20;99.90;;;;;;5093364;28;20222;-47
2023/05/02 05:33:37;;;;;;;29.05;15.13;;;11.10;99.90;;;;;;5092842;28;20162;-47
2023/05/02 05:36:10;;;;;;;24.60;15.48;;;11.20;99.90;;;;;;5092247;28;20676;-46
2023/05/02 05:38:36;;;;;;;23.20;14.80;;;11.30;99.90;;;;;;5093114;28;20256;-46
2023/05/02 05:41:01;;;;;;;26.70;15.75;;;11.30;99.90;;;;;;5092703;28;20244;-46
2023/05/02 05:43:28;;;;;;;25.33;15.27;;;11.30;99.90;;;;;;5092648;28;20644;-46
2023/05/02 05:45:54;;;;;;;29.10;14.63;;;11.30;99.90;;;;;;5092522;28;20172;-46
2023/05/02 05:48:21;;;;;;;26.33;15.05;;;11.30;99.90;;;;;;5092612;28;20657;-46
2023/05/02 05:50:46;;;;;;;23.58;15.13;;;11.40;99.90;;;;;;5092984;28;20528;-46
2023/05/02 05:53:12;;;;;;;24.33;13.15;;;11.40;99.90;;;;;;5092657;28;20166;-46
2023/05/02 05:55:38;;;;;;;23.98;15.15;;;11.30;99.90;;;;;;5093271;28;20217;-48
2023/05/02 05:58:04;;;;;;;27.42;16.05;;;11.30;99.90;;;;;;5092492;28;20184;-47
2023/05/02 06:00:33;;;;;;;27.02;15.25;;;11.30;99.90;;;;;;5092553;28;20165;-45
2023/05/02 06:02:58;;;;;;;27.25;15.30;;;11.40;99.90;;;;;;5089074;28;20180;-49
2023/05/02 06:05:24;;;;;;;24.17;14.32;;;11.30;99.90;;;;;;5090271;28;20588;-51
2023/05/02 06:07:50;;;;;;;23.77;12.73;;;11.40;99.90;;;;;;5090514;28;20600;-51
2023/05/02 06:10:16;;;;;;;23.98;15.27;;;;;;;;;;5089145;28;20191;-52
2023/05/02 06:12:41;;;;;;;22.55;14.30;;;11.50;99.90;;;;;;5090538;28;20177;-47
2023/05/02 06:15:07;;;;;;;24.58;13.82;;;;;;;;;;5090673;28;20209;-47
2023/05/02 06:17:33;;;;;;;21.58;13.98;;;11.60;99.90;;;;;;5090123;28;20407;-47
2023/05/02 06:19:58;;;;;;;19.38;13.15;;;11.70;99.90;;;;;;5090530;28;21238;-47
2023/05/02 06:22:24;;;;;;;21.15;12.48;;;11.70;99.90;;;;;;5090297;28;20670;-48
2023/05/02 06:24:50;;;;;;;21.30;13.00;;;11.80;99.90;;;;;;5090491;28;20253;-48
2023/05/02 06:27:15;;;;;;;21.25;12.85;;;11.80;99.90;;;;;;5090310;28;20541;-47
2023/05/02 06:29:41;;;;;;;21.25;12.88;;;;;;;;;;5090067;28;20168;-48
2023/05/02 06:32:07;;;;;;;17.70;9.82;;;11.90;99.90;;;;;;5090534;28;20172;-47
2023/05/02 06:34:33;;;;;;;20.40;11.68;;;;;;;;;;5090069;28;20200;-47
2023/05/02 06:36:58;;;;;;;18.88;12.40;;;11.80;99.90;;;;;;5090052;28;20173;-48
2023/05/02 06:39:24;;;;;;;19.98;11.57;;;11.80;99.90;;;;;;5090048;28;20165;-48
2023/05/02 06:41:50;;;;;;;18.27;11.32;;;11.70;99.90;;;;;;5088313;28;20177;-48
2023/05/02 06:44:15;;;;;;;17.95;11.60;;;11.70;99.90;;;;;;5089920;28;20173;-48
2023/05/02 06:46:41;;;;;;;17.58;11.32;;;11.70;99.90;;;;;;5089555;28;20460;-48
2023/05/02 06:49:07;;;;;;;20.20;10.80;;;11.70;99.90;;;;;;5090307;28;20161;-48
2023/05/02 06:51:32;;;;;;;14.82;8.98;;;11.70;99.90;;;;;;5089789;28;20544;-48
2023/05/02 06:53:58;;;;;;;16.20;8.98;;;11.70;99.90;;;;;;5089906;28;20275;-48
2023/05/02 06:56:24;;;;;;;14.90;8.85;;;11.60;99.90;;;;;;5089716;28;20345;-48
2023/05/02 06:58:51;;;;;;;14.02;7.72;;;;;;;;;;5090133;28;20230;-48
2023/05/02 07:01:17;;;;;;;10.85;6.95;;;;;;;;;;5089813;28;20496;-48
2023/05/02 07:03:43;;;;;;;13.10;8.05;;;;;;;;;;5089486;28;20630;-48
2023/05/02 07:06:10;;;;;;;7.72;5.38;;;;;;;;;;5089934;28;20313;-48
2023/05/02 07:08:35;;;;;;;10.60;5.35;;;11.30;99.90;;;;;;5090024;28;20264;-48
2023/05/02 07:11:01;;;;;;;10.10;5.30;;;11.30;99.90;;;;;;5089972;28;20170;-48
2023/05/02 07:13:27;;;;;;;7.07;5.03;;;11.50;99.90;;;;;;5089690;28;20240;-48
2023/05/02 07:15:53;;;;;;;9.05;4.75;;;;;;;;;;5089508;28;20247;-48
2023/05/02 07:18:18;;;;;;;12.43;5.07;;;11.60;99.90;;;;;;5089637;28;20169;-48
2023/05/02 07:20:44;;;;;;;8.48;4.30;;;11.60;99.90;;;;;;5089519;28;20173;-48
2023/05/02 07:23:10;;;;;;;11.30;5.18;;;;;;;;;;5089714;28;20169;-48
2023/05/02 07:25:36;;;;;;;8.25;4.70;;;11.80;99.90;;;;;;5089865;28;20701;-48
2023/05/02 07:28:02;;;;;;;6.18;4.32;;;11.80;99.90;;;;;;5089373;28;20244;-48
2023/05/02 07:30:28;;;;;;;7.53;4.47;;;11.80;99.90;;;;;;5088183;28;20177;-48
2023/05/02 07:32:53;;;;;;;7.57;3.72;;;11.70;99.90;;;;;;5089519;28;20630;-48
2023/05/02 07:35:19;;;;;;;5.97;3.70;;;11.80;99.90;;;;;;5088083;28;20258;-48
2023/05/02 07:37:44;;;;;;;8.20;3.80;;;12.00;99.90;;;;;;5089355;28;20214;-48
2023/05/02 07:40:10;;;;;;;5.53;3.60;;;12.00;99.90;;;;;;5089545;28;20202;-48
2023/05/02 07:42:35;;;;;;;5.60;3.03;;;12.10;99.90;;;;;;5089852;28;20256;-48
2023/05/02 07:45:01;;;;;;;7.45;3.35;;;12.30;99.90;;;;;;5089351;28;20173;-48
2023/05/02 07:47:28;;;;;;;8.25;3.60;;;12.40;99.90;;;;;;5089312;28;20173;-48
2023/05/02 07:49:55;;;;;;;5.40;3.05;;;12.50;99.90;;;;;;5089629;28;20174;-47
2023/05/02 07:52:21;;;;;;;4.82;3.05;;;;;;;;;;5089467;28;20227;-48
2023/05/02 07:54:48;;;;;;;6.22;3.60;;;12.70;99.90;;;;;;5089269;28;20209;-48
2023/05/02 07:57:14;;;;;;;6.18;3.45;;;;;;;;;;5089782;28;20576;-48
2023/05/02 07:59:40;;;;;;;7.90;3.30;;;12.80;99.90;;;;;;5092918;28;20660;-48
2023/05/02 08:02:06;;;;;;;5.95;3.50;;;12.80;99.90;;;;;;5093573;28;20173;-48
2023/05/02 08:04:32;;;;;;;6.78;2.70;;;;;;;;;;5092807;28;20217;-47
2023/05/02 08:06:58;;;;;;;4.15;2.80;;;;;;;;;;5093146;28;20177;-48
2023/05/02 08:09:24;;;;;;;7.60;2.80;;;13.30;99.90;;;;;;5092768;28;20195;-48
2023/05/02 08:11:49;;;;;;;3.60;2.28;;;13.20;99.90;;;;;;5092773;28;20162;-48
2023/05/02 08:14:15;;;;;;;5.85;2.63;;;13.10;99.90;;;;;;5091460;28;20252;-48
2023/05/02 08:16:41;;;;;;;8.35;2.28;;;13.10;99.90;;;;;;5092687;28;20184;-48
2023/05/02 08:19:07;;;;;;;5.03;1.98;;;13.00;99.90;;;;;;5092796;28;20184;-48
2023/05/02 08:21:33;;;;;;;3.95;2.45;;;12.90;99.90;;;;;;5092998;28;20173;-48
2023/05/02 08:23:59;;;;;;;3.72;2.05;;;13.00;99.90;;;;;;5092649;28;20169;-48
2023/05/02 08:26:26;;;;;;;5.00;2.05;;;13.10;99.90;;;;;;5092584;28;20184;-48
2023/05/02 08:28:52;;;;;;;4.25;1.70;;;;;;;;;;5092451;28;20177;-48
2023/05/02 08:31:18;;;;;;;4.15;2.10;;;;;;;;;;5092582;28;20157;-48
2023/05/02 08:33:44;;;;;;;6.75;2.35;;;13.30;99.90;;;;;;5092430;28;20166;-48
2023/05/02 08:36:17;;;;;;;3.55;1.63;;;13.80;99.90;;;;;;5092774;28;20685;-48
2023/05/02 08:38:44;;;;;;;3.65;1.77;;;13.70;99.90;;;;;;5092434;28;20177;-48
2023/05/02 08:41:18;;;;;;;3.63;2.05;;;13.40;99.90;;;;;;5092358;28;20170;-48
2023/05/02 08:43:45;;;;;;;4.60;1.73;;;13.10;99.90;;;;;;5092177;28;20195;-48
2023/05/02 08:46:12;;;;;;;3.72;2.05;;;12.70;99.90;;;;;;5092525;28;20184;-47
2023/05/02 08:48:40;;;;;;;5.95;2.63;;;12.60;99.90;;;;;;5092520;28;20173;-47
2023/05/02 08:51:15;;;;;;;7.65;2.13;;;12.40;99.90;;;;;;5091442;28;20176;-47
2023/05/02 08:53:41;;;;;;;4.72;2.28;;;;;;;;;;5092074;28;20180;-47
2023/05/02 08:56:08;;;;;;;5.90;2.50;;;12.20;99.90;;;;;;5092272;28;20216;-48
2023/05/02 08:58:38;;;;;;;7.28;2.28;;;12.10;99.90;;;;;;5092068;28;20168;-47
2023/05/02 09:01:10;;;;;;;4.43;1.50;;;12.10;99.90;;;;;;5091052;28;20174;-48
2023/05/02 09:03:36;;;;;;;4.88;2.08;;;12.10;99.90;;;;;;5092203;28;20307;-47
2023/05/02 09:06:13;;;;;;;5.13;2.13;;;12.00;99.90;;;;;;5091743;28;20292;-47
2023/05/02 09:08:39;;;;;;;6.57;2.15;;;12.00;99.90;;;;;;5092107;28;20181;-48
2023/05/02 09:11:07;;;;;;;4.45;2.20;;;11.90;99.90;;;;;;5092335;28;20252;-47
2023/05/02 09:13:35;;;;;;;3.63;1.95;;;11.90;99.90;;;;;;5091694;28;20201;-48
2023/05/02 09:16:04;;;;;;;7.78;1.92;;;12.10;99.90;;;;;;5091640;28;20850;-48
2023/05/02 09:18:49;;;;;;;4.10;2.05;;;12.30;99.90;;;;;;5091616;28;20169;-48
2023/05/02 09:21:20;;;;;;;5.57;2.28;;;12.50;99.90;;;;;;5091550;28;20247;-48
2023/05/02 09:23:46;;;;;;;4.13;2.00;;;12.60;99.90;;;;;;5091462;28;20672;-48
2023/05/02 09:26:17;;;;;;;4.70;2.28;;;12.70;99.90;;;;;;5091518;28;20165;-48
2023/05/02 09:28:54;;;;;;;9.05;2.45;;;12.90;99.90;;;;;;5091436;28;20157;-48
2023/05/02 09:31:22;;;;;;;4.30;2.40;;;12.20;99.90;;;;;;5090979;28;20659;-50
2023/05/02 09:33:48;;;;;;;6.50;2.42;;;13.00;99.90;;;;;;5091217;28;20610;-47
2023/05/02 09:36:16;;;;;;;8.75;3.08;;;13.10;99.90;;;;;;5091165;28;20750;-50
2023/05/02 09:38:44;;;;;;;7.65;2.95;;;13.10;99.90;;;;;;5090584;28;20654;-48
2023/05/02 09:41:10;;;;;;;7.65;2.55;;;13.00;99.90;;;;;;5090798;28;20230;-48
2023/05/02 09:43:37;;;;;;;8.48;2.95;;;13.20;99.90;;;;;;5091336;28;20595;-48
2023/05/02 09:46:05;;;;;;;5.28;3.15;;;13.10;99.90;;;;;;5090824;28;20165;-48
2023/05/02 09:48:32;;;;;;;7.35;3.50;;;13.10;99.90;;;;;;5090153;28;20177;-49
2023/05/02 09:50:57;;;;;;;5.63;2.80;;;12.90;99.90;;;;;;5090508;28;20172;-48
2023/05/02 09:53:27;;;;;;;6.03;2.85;;;12.70;99.90;;;;;;5090682;28;20638;-48
2023/05/02 09:56:00;;;;;;;4.35;2.65;;;12.50;99.90;;;;;;5090994;28;20236;-48
2023/05/02 09:58:26;;;;;;;8.07;3.58;;;;;;;;;;5090749;28;20173;-48
2023/05/02 10:00:51;;;;;;;6.35;2.88;;;12.90;99.90;;;;;;5090649;28;20177;-48
2023/05/02 10:03:18;;;;;;;5.95;2.75;;;12.90;99.90;;;;;;5090431;28;20519;-48
2023/05/02 10:05:45;;;;;;;3.40;2.25;;;12.90;99.90;;;;;;5088083;28;20220;-48
2023/05/02 10:08:12;;;;;;;9.18;3.15;;;12.90;99.90;;;;;;5090723;28;20215;-48
2023/05/02 10:10:43;;;;;;;8.57;2.65;;;12.90;99.90;;;;;;5091102;28;20169;-48
2023/05/02 10:13:09;;;;;;;7.80;2.92;;;;;;;;;;5090294;28;20642;-48
2023/05/02 10:15:41;;;;;;;7.10;3.63;;;13.10;99.90;;;;;;5090934;28;20677;-49
2023/05/02 10:18:13;;;;;;;9.25;3.08;;;13.20;99.90;;;;;;5091083;28;20567;-48
2023/05/02 10:20:43;;;;;;;8.95;2.50;;;13.20;99.90;;;;;;5090345;28;20223;-48
2023/05/02 10:23:09;;;;;;;5.30;2.22;;;;;;;;;;5090919;28;20545;-48
2023/05/02 10:25:36;;;;;;;5.43;2.05;;;;;;;;;;5090587;28;20169;-48
2023/05/02 10:28:02;;;;;;;5.45;2.85;;;12.90;99.90;;;;;;5090508;28;20165;-48
2023/05/02 10:30:29;;;;;;;6.80;2.70;;;12.90;99.90;;;;;;5090392;28;20219;-49
2023/05/02 10:32:58;;;;;;;7.63;3.10;;;13.00;99.90;;;;;;5090054;28;20612;-48
2023/05/02 10:35:25;;;;;;;10.68;4.13;;;13.20;99.90;;;;;;5089953;28;20670;-49
2023/05/02 10:37:52;;;;;;;10.48;4.38;;;13.00;99.90;;;;;;5090067;28;20287;-48
2023/05/02 10:40:18;;;;;;;8.10;4.13;;;;;;;;;;5090265;28;20210;-48
2023/05/02 10:42:46;;;;;;;8.55;3.90;;;12.90;99.90;;;;;;5090307;28;20558;-48
2023/05/02 10:45:29;;;;;;;8.27;3.70;;;12.90;99.90;;;;;;5090300;28;20173;-48
2023/05/02 10:48:15;;;;;;;10.07;3.40;;;12.90;99.90;;;;;;5089975;28;20169;-48
2023/05/02 10:50:47;;;;;;;9.70;3.63;;;13.00;99.90;;;;;;5090045;28;20204;-48
2023/05/02 10:53:30;;;;;;;8.73;3.00;;;12.90;99.90;;;;;;5089933;28;20161;-48
2023/05/02 10:56:09;;;;;;;5.70;2.65;;;13.10;99.90;;;;;;5089787;28;20559;-48
2023/05/02 10:58:36;;;;;;;8.55;3.20;;;;;;;;;;5090422;28;20204;-48
2023/05/02 11:01:23;;;;;;;9.00;3.58;;;13.20;99.90;;;;;;5090030;28;20569;-48
2023/05/02 11:04:19;;;;;;;5.72;3.20;;;13.20;99.90;;;;;;5089725;28;20173;-48
2023/05/02 11:06:59;;;;;;;8.52;3.08;;;13.50;99.90;;;;;;5089859;28;20200;-48
2023/05/02 11:09:28;;;;;;;6.20;3.90;;;13.60;99.90;;;;;;5088115;28;20169;-48
2023/05/02 11:11:57;;;;;;;11.25;3.97;;;13.70;99.90;;;;;;5089663;28;20161;-48
2023/05/02 11:14:29;;;;;;;8.13;3.80;;;13.90;99.90;;;;;;5089764;28;20173;-48
2023/05/02 11:17:15;;;;;;;8.68;3.40;;;14.10;99.90;;;;;;5088388;28;20270;-48
2023/05/02 11:19:43;;;;;;;8.55;3.83;;;14.10;99.90;;;;;;5089165;28;20523;-48
2023/05/02 11:22:18;;;;;;;6.95;3.40;;;14.30;99.90;;;;;;5089627;28;20169;-48
2023/05/02 11:24:48;;;;;;;7.75;3.63;;;14.30;99.90;;;;;;5089543;28;20172;-47
2023/05/02 11:27:29;;;;;;;8.45;3.38;;;14.50;99.90;;;;;;5089631;28;20181;-48
2023/05/02 11:29:57;;;;;;;7.38;3.83;;;14.70;99.90;;;;;;5089765;28;20222;-48
2023/05/02 11:32:48;;;;;;;8.45;3.65;;;14.60;99.90;;;;;;5091688;28;20217;-48
2023/05/02 11:35:25;;;;;;;6.72;3.67;;;14.80;99.90;;;;;;5093386;28;20208;-48
2023/05/02 11:37:58;;;;;;;8.00;3.40;;;15.00;99.90;;;;;;5093699;28;20190;-48
2023/05/02 11:40:25;;;;;;;8.43;4.70;;;14.80;99.90;;;;;;5093375;28;20172;-48
2023/05/02 11:42:51;;;;;;;10.50;3.30;;;14.50;99.90;;;;;;5093506;28;20519;-49
2023/05/02 11:45:17;;;;;;;9.07;4.38;;;14.50;99.90;;;;;;5093347;28;20305;-49
2023/05/02 11:47:45;;;;;;;8.55;3.70;;;14.40;99.90;;;;;;5093640;28;20203;-49
2023/05/02 11:50:11;;;;;;;7.50;3.72;;;14.40;99.90;;;;;;5093401;28;20177;-49
2023/05/02 11:52:41;;;;;;;7.43;3.70;;;14.70;99.90;;;;;;5092347;28;20311;-49
2023/05/02 11:55:10;;;;;;;9.52;3.58;;;14.60;99.90;;;;;;5093527;28;20667;-49
2023/05/02 11:57:36;;;;;;;10.13;3.10;;;;;;;;;;5092555;28;20579;-49
2023/05/02 12:00:02;;;;;;;10.05;3.97;;;14.30;99.90;;;;;;5093086;28;20703;-49
2023/05/02 12:02:57;;;;;;;10.85;4.90;;;14.50;99.90;;;;;;5092923;28;20333;-49
2023/05/02 12:05:29;;;;;;;8.55;4.22;;;14.60;99.90;;;;;;5082645;28;20217;-49
2023/05/02 12:07:54;;;;;;;8.07;3.97;;;14.60;99.90;;;;;;5093139;28;20195;-48
2023/05/02 12:10:20;;;;;;;4.82;3.10;;;;;;;;;;5092655;28;20165;-49
2023/05/02 12:12:46;;;;;;;10.23;3.80;;;14.90;99.90;;;;;;5092416;28;20179;-49
2023/05/02 12:15:12;;;;;;;6.68;3.95;;;15.00;99.90;;;;;;5092689;28;20205;-49
2023/05/02 12:17:43;;;;;;;8.40;3.33;;;18.40;99.90;;;;;;5092911;28;20227;-49
2023/05/02 12:20:09;;;;;;;9.80;4.47;;;14.90;99.90;;;;;;5092668;28;20246;-48
2023/05/02 12:22:36;;;;;;;11.02;4.05;;;15.90;99.90;;;;;;5093075;28;20538;-48
2023/05/02 12:25:04;;;;;;;7.68;3.50;;;14.90;99.90;;;;;;5092295;28;20642;-48
2023/05/02 12:27:32;;;;;;;7.00;3.58;;;14.80;99.90;;;;;;5092476;28;20173;-48
2023/05/02 12:29:58;;;;;;;7.32;3.63;;;14.70;99.90;;;;;;5092330;28;20929;-48
2023/05/02 12:32:31;;;;;;;10.15;3.60;;;14.60;99.90;;;;;;5090997;28;20230;-49
2023/05/02 12:34:58;;;;;;;9.25;3.00;;;14.70;99.90;;;;;;5091836;28;20189;-48
2023/05/02 12:37:27;;;;;;;7.00;3.63;;;14.60;99.90;;;;;;5092237;28;20646;-48
2023/05/02 12:39:54;;;;;;;9.02;3.70;;;14.70;99.90;;;;;;5092389;28;20518;-48
2023/05/02 12:42:22;;;;;;;4.53;3.13;;;14.80;99.90;;;;;;5090790;28;20168;-48
2023/05/02 12:44:52;;;;;;;4.28;3.40;;;15.40;99.90;;;;;;5091965;28;20173;-48
2023/05/02 12:47:18;;;;;;;9.07;3.58;;;15.60;99.90;;;;;;5090743;28;20204;-48
2023/05/02 12:49:56;;;;;;;6.35;3.20;;;15.50;99.90;;;;;;5092193;28;20165;-48
2023/05/02 12:52:56;;;;;;;6.32;3.17;;;15.40;99.90;;;;;;5092101;28;20205;-48